createdAt,value
2023-03-06T00:01:28.050Z,101158.53
2023-03-06T00:03:55.238Z,101147.69
2023-03-06T00:06:22.099Z,101141.88
2023-03-06T00:08:48.564Z,101142.84
2023-03-06T00:11:15.534Z,101144.50
2023-03-06T00:13:42.048Z,101136.91
2023-03-06T00:16:08.897Z,101129.66
2023-03-06T00:18:35.387Z,101134.19
2023-03-06T00:21:01.884Z,101136.81
2023-03-06T00:23:28.379Z,101125.31
2023-03-06T00:25:54.867Z,101121.13
2023-03-06T00:28:21.431Z,101111.03
2023-03-06T00:30:48.257Z,101112.69
2023-03-06T00:33:14.832Z,101103.28
2023-03-06T00:35:41.713Z,101115.19
2023-03-06T00:38:11.687Z,101113.53
2023-03-06T00:40:38.140Z,101100.91
2023-03-06T00:43:04.583Z,101098.56
2023-03-06T00:45:31.185Z,101093.06
2023-03-06T00:47:57.701Z,101092.50
2023-03-06T00:50:24.188Z,101083.34
2023-03-06T00:52:50.639Z,101084.28
2023-03-06T00:55:17.305Z,101067.44
2023-03-06T00:57:43.895Z,101075.28
2023-03-06T01:00:12.288Z,101067.91
2023-03-06T01:02:38.951Z,101071.25
2023-03-06T01:05:06.228Z,101073.75
2023-03-06T01:07:36.987Z,101064.47
2023-03-06T01:10:05.523Z,101064.09
2023-03-06T01:12:31.948Z,101049.09
2023-03-06T01:14:58.435Z,101054.34
2023-03-06T01:17:24.927Z,101050.75
2023-03-06T01:19:51.465Z,101056.00
2023-03-06T01:22:17.949Z,101043.16
2023-03-06T01:24:44.391Z,101055.19
2023-03-06T01:27:10.832Z,101032.13
2023-03-06T01:29:37.358Z,101044.25
2023-03-06T01:32:04.004Z,101042.69
2023-03-06T01:34:30.500Z,101050.31
2023-03-06T01:36:57.037Z,101047.81
2023-03-06T01:39:23.576Z,101052.59
2023-03-06T01:41:50.046Z,101045.34
2023-03-06T01:44:16.592Z,101046.31
2023-03-06T01:46:45.255Z,101050.84
2023-03-06T01:49:24.935Z,101038.25
2023-03-06T01:52:03.703Z,101037.91
2023-03-06T01:54:37.219Z,101032.94
2023-03-06T01:57:12.566Z,101038.88
2023-03-06T01:59:42.349Z,101030.56
2023-03-06T02:02:11.484Z,101032.59
2023-03-06T02:04:39.946Z,101018.13
2023-03-06T02:07:07.510Z,101023.34
2023-03-06T02:09:36.565Z,101014.66
2023-03-06T02:12:07.864Z,101013.94
2023-03-06T02:14:34.965Z,101006.94
2023-03-06T02:17:01.912Z,101008.84
2023-03-06T02:20:06.681Z,101006.22
2023-03-06T02:22:40.260Z,101004.09
2023-03-06T02:25:25.485Z,101021.31
2023-03-06T02:27:51.941Z,101021.47
2023-03-06T02:30:19.063Z,101005.41
2023-03-06T02:32:45.601Z,100998.41
2023-03-06T02:35:25.096Z,101001.84
2023-03-06T02:37:53.185Z,101008.63
2023-03-06T02:40:22.063Z,100997.22
2023-03-06T02:42:56.501Z,100988.66
2023-03-06T02:45:45.311Z,100997.91
2023-03-06T02:48:13.874Z,100992.44
2023-03-06T02:50:41.146Z,100985.16
2023-03-06T02:53:08.738Z,100977.22
2023-03-06T02:55:35.728Z,100981.97
2023-03-06T02:58:03.391Z,100973.88
2023-03-06T03:00:30.922Z,100964.78
2023-03-06T03:02:57.541Z,100967.16
2023-03-06T03:05:24.313Z,100950.50
2023-03-06T03:07:50.846Z,100952.75
2023-03-06T03:10:17.695Z,100957.84
2023-03-06T03:12:45.163Z,100953.47
2023-03-06T03:15:11.804Z,100946.16
2023-03-06T03:17:41.984Z,100939.28
2023-03-06T03:20:12.610Z,100940.69
2023-03-06T03:22:39.279Z,100931.63
2023-03-06T03:25:06.475Z,100925.59
2023-03-06T03:27:33.095Z,100928.06
2023-03-06T03:30:00.539Z,100920.09
2023-03-06T03:32:27.139Z,100925.06
2023-03-06T03:34:55.922Z,100914.47
2023-03-06T03:37:22.539Z,100916.00
2023-03-06T03:39:49.007Z,100913.50
2023-03-06T03:42:15.665Z,100930.63
2023-03-06T03:44:42.175Z,100913.00
2023-03-06T03:47:08.857Z,100916.31
2023-03-06T03:49:35.359Z,100913.00
2023-03-06T03:52:01.824Z,100902.16
2023-03-06T03:54:28.876Z,100907.94
2023-03-06T03:56:55.364Z,100901.75
2023-03-06T03:59:21.936Z,100901.06
2023-03-06T04:01:49.395Z,100903.56
2023-03-06T04:04:15.867Z,100902.22
2023-03-06T04:06:42.339Z,100906.63
2023-03-06T04:09:09.139Z,100901.94
2023-03-06T04:11:35.580Z,100894.34
2023-03-06T04:14:03.252Z,100893.84
2023-03-06T04:16:29.837Z,100887.91
2023-03-06T04:18:56.471Z,100879.78
2023-03-06T04:21:22.909Z,100880.47
2023-03-06T04:23:49.348Z,100883.09
2023-03-06T04:26:15.815Z,100870.97
2023-03-06T04:28:42.265Z,100883.69
2023-03-06T04:31:08.786Z,100873.31
2023-03-06T04:33:35.299Z,100875.13
2023-03-06T04:36:01.750Z,100875.84
2023-03-06T04:38:28.247Z,100872.38
2023-03-06T04:40:54.799Z,100871.03
2023-03-06T04:43:21.501Z,100869.94
2023-03-06T04:45:48.068Z,100871.16
2023-03-06T04:48:17.238Z,100857.50
2023-03-06T04:50:44.596Z,100846.19
2023-03-06T04:53:11.180Z,100858.31
2023-03-06T04:55:37.695Z,100852.81
2023-03-06T04:58:04.149Z,100850.09
2023-03-06T05:00:31.659Z,100849.81
2023-03-06T05:02:59.859Z,100858.94
2023-03-06T05:05:27.168Z,100850.94
2023-03-06T05:07:54.054Z,100859.34
2023-03-06T05:10:21.046Z,100851.81
2023-03-06T05:12:47.633Z,100854.44
2023-03-06T05:15:14.326Z,100852.94
2023-03-06T05:17:41.242Z,100848.53
2023-03-06T05:20:09.739Z,100850.88
2023-03-06T05:22:36.549Z,100846.47
2023-03-06T05:25:03.299Z,100851.03
2023-03-06T05:27:29.785Z,100849.38
2023-03-06T05:29:56.328Z,100843.19
2023-03-06T05:32:23.007Z,100839.75
2023-03-06T05:34:49.991Z,100847.44
2023-03-06T05:37:16.528Z,100840.56
2023-03-06T05:39:43.247Z,100827.34
2023-03-06T05:42:09.745Z,100828.16
2023-03-06T05:44:36.878Z,100832.44
2023-03-06T05:47:03.912Z,100835.03
2023-03-06T05:49:35.064Z,100833.38
2023-03-06T05:52:04.084Z,100831.03
2023-03-06T05:54:32.185Z,100831.19
2023-03-06T05:56:59.115Z,100827.03
2023-03-06T05:59:29.110Z,100819.59
2023-03-06T06:01:56.227Z,100822.06
2023-03-06T06:04:24.688Z,100823.97
2023-03-06T06:06:55.998Z,100834.72
2023-03-06T06:09:22.839Z,100834.03
2023-03-06T06:11:54.464Z,100837.50
2023-03-06T06:14:21.608Z,100840.22
2023-03-06T06:16:48.749Z,100844.50
2023-03-06T06:19:18.728Z,100840.13
2023-03-06T06:21:51.096Z,100841.63
2023-03-06T06:24:19.663Z,100851.72
2023-03-06T06:26:46.209Z,100849.78
2023-03-06T06:29:13.675Z,100852.25
2023-03-06T06:31:40.585Z,100854.88
2023-03-06T06:34:08.326Z,100851.31
2023-03-06T06:36:34.820Z,100853.28
2023-03-06T06:39:01.529Z,100849.81
2023-03-06T06:41:50.607Z,100851.34
2023-03-06T06:44:16.178Z,100841.41
2023-03-06T06:49:32.027Z,100853.97
2023-03-06T06:51:58.779Z,100851.63
2023-03-06T06:54:25.357Z,100846.00
2023-03-06T06:56:52.016Z,100853.59
2023-03-06T06:59:18.536Z,100849.72
2023-03-06T07:01:45.259Z,100847.53
2023-03-06T07:04:13.686Z,100854.56
2023-03-06T07:06:41.189Z,100843.66
2023-03-06T07:09:07.686Z,100850.84
2023-03-06T07:11:34.347Z,100856.34
2023-03-06T07:14:01.837Z,100856.66
2023-03-06T07:16:28.370Z,100866.31
2023-03-06T07:18:54.996Z,100863.56
2023-03-06T07:21:21.753Z,100871.00
2023-03-06T07:23:48.238Z,100869.75
2023-03-06T07:26:14.686Z,100869.50
2023-03-06T07:28:51.845Z,100862.59
2023-03-06T07:31:25.233Z,100870.47
2023-03-06T07:33:53.319Z,100866.19
2023-03-06T07:36:21.011Z,100875.44
2023-03-06T07:38:47.585Z,100877.38
2023-03-06T07:41:16.381Z,100867.44
2023-03-06T07:43:44.808Z,100871.28
2023-03-06T07:46:12.858Z,100880.94
2023-03-06T07:48:39.795Z,100871.28
2023-03-06T07:51:12.085Z,100887.03
2023-03-06T07:53:38.596Z,100876.53
2023-03-06T07:56:08.908Z,100868.22
2023-03-06T07:58:36.645Z,100864.88
2023-03-06T08:01:08.769Z,100865.97
2023-03-06T08:03:35.381Z,100865.41
2023-03-06T08:06:07.084Z,100875.03
2023-03-06T08:08:35.131Z,100869.78
2023-03-06T08:11:01.674Z,100870.47
2023-03-06T08:13:28.181Z,100873.66
2023-03-06T08:15:54.724Z,100872.00
2023-03-06T08:18:21.224Z,100876.13
2023-03-06T08:20:47.715Z,100873.34
2023-03-06T08:23:14.273Z,100868.63
2023-03-06T08:25:40.756Z,100876.63
2023-03-06T08:28:09.924Z,100869.13
2023-03-06T08:30:36.402Z,100869.41
2023-03-06T08:33:02.956Z,100865.81
2023-03-06T08:35:29.549Z,100871.88
2023-03-06T08:37:56.087Z,100867.06
2023-03-06T08:40:23.292Z,100868.31
2023-03-06T08:42:49.779Z,100873.00
2023-03-06T08:45:16.387Z,100867.00
2023-03-06T08:47:42.909Z,100864.09
2023-03-06T08:50:10.387Z,100865.13
2023-03-06T08:52:36.857Z,100869.22
2023-03-06T08:55:03.696Z,100866.78
2023-03-06T08:57:30.714Z,100861.13
2023-03-06T08:59:57.304Z,100857.41
2023-03-06T09:02:23.816Z,100861.34
2023-03-06T09:04:50.334Z,100857.28
2023-03-06T09:07:16.847Z,100850.75
2023-03-06T09:09:43.286Z,100856.69
2023-03-06T09:12:09.790Z,100860.38
2023-03-06T09:14:36.304Z,100857.63
2023-03-06T09:17:02.767Z,100868.16
2023-03-06T09:19:29.270Z,100863.75
2023-03-06T09:21:57.749Z,100862.09
2023-03-06T09:24:24.502Z,100860.38
2023-03-06T09:26:51.675Z,100864.19
2023-03-06T09:29:18.340Z,100861.78
2023-03-06T09:31:45.560Z,100858.38
2023-03-06T09:34:12.304Z,100858.31
2023-03-06T09:36:54.941Z,100858.94
2023-03-06T09:39:22.891Z,100847.09
2023-03-06T09:41:50.772Z,100846.53
2023-03-06T09:44:23.735Z,100850.91
2023-03-06T09:47:21.108Z,100853.25
2023-03-06T09:50:11.864Z,100849.78
2023-03-06T09:53:08.618Z,100851.00
2023-03-06T09:55:40.243Z,100849.16
2023-03-06T09:58:25.602Z,100857.69
2023-03-06T10:00:55.016Z,100849.25
2023-03-06T10:03:39.524Z,100853.50
2023-03-06T10:06:18.385Z,100853.00
2023-03-06T10:08:50.805Z,100856.88
2023-03-06T10:11:22.533Z,100864.31
2023-03-06T10:13:58.798Z,100857.75
2023-03-06T10:16:31.391Z,100853.09
2023-03-06T10:19:04.001Z,100857.75
2023-03-06T10:21:45.440Z,100859.25
2023-03-06T10:24:45.259Z,100853.44
2023-03-06T10:27:33.183Z,100841.59
2023-03-06T10:30:16.488Z,100851.81
2023-03-06T10:32:49.205Z,100845.06
2023-03-06T10:35:21.690Z,100843.88
2023-03-06T10:37:49.011Z,100840.44
2023-03-06T10:40:21.328Z,100836.63
2023-03-06T10:42:47.956Z,100846.03
2023-03-06T10:45:16.755Z,100842.38
2023-03-06T10:47:44.160Z,100844.88
2023-03-06T10:50:30.701Z,100833.97
2023-03-06T10:53:07.045Z,100834.31
2023-03-06T10:55:36.220Z,100840.28
2023-03-06T10:58:18.411Z,100838.16
2023-03-06T11:00:45.467Z,100820.47
2023-03-06T11:03:19.893Z,100825.41
2023-03-06T11:06:06.753Z,100822.44
2023-03-06T11:08:35.356Z,100812.59
2023-03-06T11:11:13.225Z,100820.00
2023-03-06T11:13:42.635Z,100815.78
2023-03-06T11:16:26.696Z,100805.03
2023-03-06T11:19:03.881Z,100811.53
2023-03-06T11:21:34.048Z,100811.22
2023-03-06T11:24:15.590Z,100811.22
2023-03-06T11:26:51.584Z,100807.25
2023-03-06T11:29:29.639Z,100810.56
2023-03-06T11:32:15.030Z,100797.03
2023-03-06T11:34:52.187Z,100801.16
2023-03-06T11:37:42.793Z,100797.84
2023-03-06T11:40:09.360Z,100793.78
2023-03-06T11:42:40.900Z,100775.28
2023-03-06T11:45:51.655Z,100781.91
2023-03-06T11:48:24.916Z,100773.97
2023-03-06T11:50:55.329Z,100769.41
2023-03-06T11:53:28.285Z,100768.88
2023-03-06T11:56:14.375Z,100774.84
2023-03-06T11:58:55.104Z,100776.19
2023-03-06T12:01:36.994Z,100774.25
2023-03-06T12:04:25.410Z,100780.84
2023-03-06T12:07:20.723Z,100772.16
2023-03-06T12:10:14.785Z,100766.06
2023-03-06T12:12:58.459Z,100761.09
2023-03-06T12:15:52.902Z,100758.91
2023-03-06T12:18:37.635Z,100757.38
2023-03-06T12:21:15.011Z,100759.28
2023-03-06T12:24:09.263Z,100762.28
2023-03-06T12:27:00.688Z,100757.00
2023-03-06T12:29:57.725Z,100751.50
2023-03-06T12:32:52.219Z,100751.16
2023-03-06T12:35:54.951Z,100749.44
2023-03-06T12:38:31.848Z,100741.94
2023-03-06T12:41:14.496Z,100736.31
2023-03-06T12:43:50.039Z,100746.41
2023-03-06T12:46:20.497Z,100734.69
2023-03-06T12:49:12.291Z,100735.75
2023-03-06T12:51:39.899Z,100737.25
2023-03-06T12:54:07.324Z,100729.72
2023-03-06T12:56:35.405Z,100730.53
2023-03-06T12:59:02.693Z,100714.81
2023-03-06T13:01:43.135Z,100713.28
2023-03-06T13:04:35.311Z,100706.44
2023-03-06T13:07:39.793Z,100707.06
2023-03-06T13:10:21.331Z,100697.38
2023-03-06T13:13:05.041Z,100701.91
2023-03-06T13:15:41.026Z,100692.44
2023-03-06T13:18:22.620Z,100694.16
2023-03-06T13:20:53.597Z,100685.50
2023-03-06T13:23:29.092Z,100682.63
2023-03-06T13:26:03.137Z,100670.69
2023-03-06T13:28:50.526Z,100679.47
2023-03-06T13:31:49.404Z,100669.69
2023-03-06T13:34:33.910Z,100665.25
2023-03-06T13:37:19.773Z,100658.41
2023-03-06T13:39:55.084Z,100653.41
2023-03-06T13:42:33.211Z,100655.72
2023-03-06T13:45:16.212Z,100640.34
2023-03-06T13:50:47.032Z,100640.91
2023-03-06T13:53:33.357Z,100639.84
2023-03-06T13:56:14.359Z,100637.69
2023-03-06T13:58:55.862Z,100630.56
2023-03-06T14:01:31.468Z,100632.97
2023-03-06T14:04:30.656Z,100626.53
2023-03-06T14:07:09.334Z,100631.34
2023-03-06T14:09:41.729Z,100620.28
2023-03-06T14:12:17.707Z,100620.63
2023-03-06T14:14:50.984Z,100616.66
2023-03-06T14:17:28.389Z,100617.56
2023-03-06T14:19:58.134Z,100616.28
2023-03-06T14:22:24.943Z,100604.59
2023-03-06T14:25:00.623Z,100609.56
2023-03-06T14:28:12.405Z,100605.31
2023-03-06T14:30:49.510Z,100598.91
2023-03-06T14:33:43.153Z,100594.84
2023-03-06T14:36:19.973Z,100592.75
2023-03-06T14:39:14.572Z,100589.97
2023-03-06T14:41:41.127Z,100580.06
2023-03-06T14:44:22.291Z,100585.34
2023-03-06T14:46:55.114Z,100592.28
2023-03-06T14:49:26.291Z,100577.78
2023-03-06T14:51:54.143Z,100587.84
2023-03-06T14:54:30.315Z,100587.72
2023-03-06T14:57:02.881Z,100586.88
2023-03-06T14:59:34.261Z,100588.25
2023-03-06T15:02:07.515Z,100580.16
2023-03-06T15:04:42.195Z,100589.22
2023-03-06T15:07:16.185Z,100587.72
2023-03-06T15:09:46.704Z,100580.31
2023-03-06T15:12:19.778Z,100573.06
2023-03-06T15:14:58.657Z,100560.88
2023-03-06T15:17:30.170Z,100545.53
2023-03-06T15:20:00.949Z,100547.66
2023-03-06T15:22:42.929Z,100555.56
2023-03-06T15:25:20.576Z,100559.50
2023-03-06T15:27:51.732Z,100554.28
2023-03-06T15:30:27.183Z,100559.22
2023-03-06T15:33:29.205Z,100560.38
2023-03-06T15:35:57.030Z,100562.69
2023-03-06T15:38:40.689Z,100556.91
2023-03-06T15:41:21.633Z,100546.53
2023-03-06T15:43:48.160Z,100548.03
2023-03-06T15:46:14.734Z,100541.44
2023-03-06T15:48:54.653Z,100532.88
2023-03-06T15:51:21.196Z,100533.19
2023-03-06T15:53:47.972Z,100530.88
2023-03-06T15:56:15.018Z,100522.66
2023-03-06T15:58:42.527Z,100527.41
2023-03-06T16:01:16.255Z,100529.84
2023-03-06T16:03:43.420Z,100524.44
2023-03-06T16:06:26.967Z,100514.19
2023-03-06T16:08:53.730Z,100518.31
2023-03-06T16:11:42.023Z,100526.66
2023-03-06T16:14:18.935Z,100518.91
2023-03-06T16:16:45.794Z,100516.09
2023-03-06T16:19:25.974Z,100513.25
2023-03-06T16:21:53.240Z,100511.41
2023-03-06T16:24:19.780Z,100516.81
2023-03-06T16:26:51.134Z,100509.06
2023-03-06T16:29:19.860Z,100517.38
2023-03-06T16:31:46.532Z,100514.88
2023-03-06T16:34:13.843Z,100520.22
2023-03-06T16:36:40.487Z,100511.63
2023-03-06T16:39:16.831Z,100495.19
2023-03-06T16:41:44.903Z,100503.63
2023-03-06T16:44:12.274Z,100503.94
2023-03-06T16:46:42.292Z,100499.66
2023-03-06T16:49:15.847Z,100493.91
2023-03-06T16:51:42.354Z,100481.75
2023-03-06T16:54:08.909Z,100485.84
2023-03-06T16:56:35.388Z,100486.47
2023-03-06T16:59:01.942Z,100486.09
2023-03-06T17:01:28.477Z,100484.78
2023-03-06T17:03:55.040Z,100482.81
2023-03-06T17:06:22.855Z,100482.44
2023-03-06T17:08:50.096Z,100466.69
2023-03-06T17:11:17.724Z,100463.59
2023-03-06T17:13:44.262Z,100468.56
2023-03-06T17:16:16.363Z,100460.00
2023-03-06T17:18:44.429Z,100464.72
2023-03-06T17:21:12.140Z,100446.63
2023-03-06T17:23:38.675Z,100455.50
2023-03-06T17:26:11.454Z,100445.78
2023-03-06T17:28:38.733Z,100445.59
2023-03-06T17:31:19.703Z,100444.63
2023-03-06T17:33:46.759Z,100446.44
2023-03-06T17:36:14.538Z,100433.25
2023-03-06T17:38:41.851Z,100429.28
2023-03-06T17:41:09.975Z,100435.22
2023-03-06T17:43:37.833Z,100435.88
2023-03-06T17:46:05.988Z,100428.97
2023-03-06T17:48:33.181Z,100428.00
2023-03-06T17:51:00.002Z,100422.88
2023-03-06T17:53:26.896Z,100421.91
2023-03-06T17:55:54.820Z,100415.19
2023-03-06T17:58:21.297Z,100416.81
2023-03-06T18:00:48.291Z,100417.50
2023-03-06T18:03:14.863Z,100412.91
2023-03-06T18:05:41.451Z,100420.94
2023-03-06T18:08:10.166Z,100405.47
2023-03-06T18:10:40.809Z,100416.00
2023-03-06T18:13:07.965Z,100411.88
2023-03-06T18:15:37.971Z,100414.34
2023-03-06T18:18:04.668Z,100406.94
2023-03-06T18:20:31.217Z,100414.28
2023-03-06T18:23:03.238Z,100410.19
2023-03-06T18:25:31.674Z,100400.97
2023-03-06T18:27:58.541Z,100396.00
2023-03-06T18:30:25.848Z,100394.38
2023-03-06T18:32:52.420Z,100388.31
2023-03-06T18:35:19.046Z,100393.88
2023-03-06T18:37:45.655Z,100386.44
2023-03-06T18:40:12.972Z,100374.75
2023-03-06T18:42:39.465Z,100377.38
2023-03-06T18:45:06.627Z,100376.34
2023-03-06T18:47:33.695Z,100368.59
2023-03-06T18:50:00.227Z,100360.06
2023-03-06T18:52:26.680Z,100351.88
2023-03-06T18:54:53.492Z,100359.09
2023-03-06T18:57:20.100Z,100353.31
2023-03-06T18:59:46.699Z,100349.34
2023-03-06T19:02:13.332Z,100339.66
2023-03-06T19:04:39.844Z,100350.47
2023-03-06T19:07:06.947Z,100337.81
2023-03-06T19:09:33.972Z,100345.03
2023-03-06T19:12:03.165Z,100327.41
2023-03-06T19:14:29.844Z,100324.09
2023-03-06T19:16:56.579Z,100320.38
2023-03-06T19:19:26.414Z,100312.81
2023-03-06T19:21:53.491Z,100312.13
2023-03-06T19:24:20.005Z,100323.00
2023-03-06T19:26:46.479Z,100314.59
2023-03-06T19:29:13.155Z,100298.13
2023-03-06T19:31:39.777Z,100305.53
2023-03-06T19:34:06.347Z,100304.03
2023-03-06T19:36:34.252Z,100300.06
2023-03-06T19:39:06.166Z,100277.91
2023-03-06T19:41:33.348Z,100293.34
2023-03-06T19:44:03.209Z,100285.91
2023-03-06T19:46:29.870Z,100288.09
2023-03-06T19:48:58.988Z,100284.78
2023-03-06T19:51:27.064Z,100282.84
2023-03-06T19:53:53.824Z,100266.56
2023-03-06T19:56:22.966Z,100254.13
2023-03-06T19:58:49.624Z,100261.69
2023-03-06T20:01:18.964Z,100257.13
2023-03-06T20:03:45.841Z,100244.97
2023-03-06T20:06:18.568Z,100238.75
2023-03-06T20:08:46.550Z,100235.69
2023-03-06T20:11:24.586Z,100235.00
2023-03-06T20:13:51.477Z,100242.41
2023-03-06T20:16:18.648Z,100223.06
2023-03-06T20:18:45.690Z,100217.81
2023-03-06T20:21:12.682Z,100221.94
2023-03-06T20:23:39.557Z,100217.19
2023-03-06T20:26:12.022Z,100205.59
2023-03-06T20:28:39.535Z,100185.25
2023-03-06T20:31:17.920Z,100199.53
2023-03-06T20:33:46.483Z,100187.75
2023-03-06T20:36:18.545Z,100181.22
2023-03-06T20:38:45.716Z,100183.03
2023-03-06T20:41:24.136Z,100180.91
2023-03-06T20:43:51.226Z,100178.78
2023-03-06T20:46:19.202Z,100162.72
2023-03-06T20:48:51.907Z,100159.13
2023-03-06T20:51:28.521Z,100148.44
2023-03-06T20:53:56.263Z,100150.63
2023-03-06T20:56:29.303Z,100148.34
2023-03-06T20:58:56.933Z,100140.94
2023-03-06T21:01:26.231Z,100128.00
2023-03-06T21:03:53.948Z,100132.94
2023-03-06T21:06:21.035Z,100131.97
2023-03-06T21:08:47.690Z,100126.38
2023-03-06T21:11:14.480Z,100140.81
2023-03-06T21:13:41.178Z,100134.25
2023-03-06T21:16:11.102Z,100117.53
2023-03-06T21:18:37.808Z,100112.94
2023-03-06T21:21:06.224Z,100112.59
2023-03-06T21:23:32.806Z,100101.44
2023-03-06T21:25:59.470Z,100108.34
2023-03-06T21:28:26.051Z,100101.97
2023-03-06T21:30:52.596Z,100104.06
2023-03-06T21:33:19.244Z,100111.97
2023-03-06T21:35:47.270Z,100097.69
2023-03-06T21:38:14.326Z,100097.50
2023-03-06T21:40:41.203Z,100091.94
2023-03-06T21:43:08.779Z,100096.88
2023-03-06T21:45:35.432Z,100090.47
2023-03-06T21:48:02.290Z,100079.13
2023-03-06T21:50:28.795Z,100072.22
2023-03-06T21:52:56.416Z,100084.38
2023-03-06T21:55:23.148Z,100095.41
2023-03-06T21:57:53.517Z,100093.56
2023-03-06T22:00:23.274Z,100076.00
2023-03-06T22:02:50.182Z,100087.19
2023-03-06T22:05:16.924Z,100090.47
2023-03-06T22:07:43.490Z,100082.06
2023-03-06T22:10:15.656Z,100090.94
2023-03-06T22:12:42.181Z,100088.16
2023-03-06T22:15:09.581Z,100065.63
2023-03-06T22:17:36.135Z,100072.38
2023-03-06T22:20:04.084Z,100064.66
2023-03-06T22:22:31.276Z,100071.06
2023-03-06T22:24:58.224Z,100071.22
2023-03-06T22:27:24.918Z,100066.47
2023-03-06T22:29:52.667Z,100062.19
2023-03-06T22:32:19.279Z,100064.16
2023-03-06T22:34:45.832Z,100067.94
2023-03-06T22:37:12.370Z,100070.41
2023-03-06T22:39:38.956Z,100063.53
2023-03-06T22:42:05.528Z,100062.88
2023-03-06T22:44:31.964Z,100052.34
2023-03-06T22:46:58.515Z,100046.91
2023-03-06T22:49:25.002Z,100062.53
2023-03-06T22:51:51.465Z,100054.34
2023-03-06T22:54:17.979Z,100052.84
2023-03-06T22:56:44.470Z,100056.31
2023-03-06T22:59:10.919Z,100054.81
2023-03-06T23:01:37.370Z,100050.41
2023-03-06T23:04:08.286Z,100057.09
2023-03-06T23:06:37.166Z,100055.66
2023-03-06T23:09:07.562Z,100045.13
2023-03-06T23:11:34.092Z,100045.78
2023-03-06T23:14:00.866Z,100051.03
2023-03-06T23:16:27.392Z,100042.19
2023-03-06T23:18:53.958Z,100044.16
2023-03-06T23:21:21.897Z,100049.75
2023-03-06T23:23:53.646Z,100045.47
2023-03-06T23:26:23.571Z,100040.34
2023-03-06T23:28:51.074Z,100044.28
2023-03-06T23:31:20.319Z,100051.19
2023-03-06T23:33:46.808Z,100044.28
2023-03-06T23:36:14.870Z,100045.13
2023-03-06T23:38:41.403Z,100034.28
2023-03-06T23:41:11.882Z,100036.25
2023-03-06T23:43:39.087Z,100037.25
2023-03-06T23:46:07.163Z,100034.09
2023-03-06T23:48:35.833Z,100032.44
2023-03-06T23:51:07.591Z,100036.38
2023-03-06T23:53:34.533Z,100028.34
2023-03-06T23:56:01.369Z,100039.31
2023-03-06T23:58:27.858Z,100032.09
